Time;durP1;ratioP1;P1;durP2;ratioP2;P2;SDS_P1;SDS_P2;PMS_P1;PMS_P2;Temp;Humidity;BMP_temperature;BMP_pressure;BME280_temperature;BME280_humidity;BME280_pressure;Samples;Min_cycle;Max_cycle;Signal;HPM_P1;HPM_P2
2023/07/27 00:02:43;;;;;;;3.80;2.30;;;18.70;90.50;;;;;;10311681;28;20018;-66
2023/07/27 00:07:44;;;;;;;5.35;2.55;;;18.70;90.50;;;;;;10314898;28;20113;-66
2023/07/27 00:12:44;;;;;;;3.55;2.10;;;18.70;90.40;;;;;;10308279;28;20030;-66
2023/07/27 00:17:45;;;;;;;5.00;2.30;;;18.70;90.40;;;;;;10312192;28;20042;-66
2023/07/27 00:22:45;;;;;;;5.00;2.90;;;18.60;90.40;;;;;;10311101;28;20030;-66
2023/07/27 00:27:46;;;;;;;3.90;2.25;;;18.60;90.40;;;;;;10314388;28;20027;-66
2023/07/27 00:32:47;;;;;;;3.97;2.20;;;18.70;90.40;;;;;;10324333;28;20026;-66
2023/07/27 00:37:47;;;;;;;2.92;2.13;;;18.60;90.40;;;;;;10330199;28;20034;-66
2023/07/27 00:42:48;;;;;;;3.65;2.20;;;18.60;90.40;;;;;;10322068;28;20118;-66
2023/07/27 00:47:48;;;;;;;3.45;2.38;;;18.60;90.40;;;;;;10326361;28;20030;-66
2023/07/27 00:52:49;;;;;;;4.00;2.15;;;18.50;90.40;;;;;;10313004;28;20084;-66
2023/07/27 00:57:51;;;;;;;3.95;2.28;;;18.50;90.40;;;;;;10316353;28;20402;-66
2023/07/27 01:02:51;;;;;;;3.58;2.10;;;18.50;90.40;;;;;;10322626;28;20038;-66
2023/07/27 01:07:52;;;;;;;4.90;2.75;;;18.50;90.40;;;;;;10342469;28;20026;-66
2023/07/27 01:13:01;;;;;;;3.95;2.28;;;18.50;90.40;;;;;;10336374;28;20149;-66
2023/07/27 01:18:15;;;;;;;5.00;2.47;;;18.50;90.40;;;;;;10322975;28;20049;-66
2023/07/27 01:23:34;;;;;;;4.10;2.63;;;18.90;90.50;;;;;;10319423;28;20022;-66
2023/07/27 01:29:14;;;;;;;3.55;2.08;;;18.50;90.40;;;;;;10328633;28;20042;-66
2023/07/27 01:34:31;;;;;;;3.53;2.35;;;18.40;90.40;;;;;;10327980;28;20371;-65
2023/07/27 01:39:38;;;;;;;6.55;3.05;;;18.40;90.40;;;;;;10337597;28;20026;-66
2023/07/27 01:44:39;;;;;;;4.35;2.60;;;18.40;90.40;;;;;;10332575;28;20030;-65
2023/07/27 01:49:43;;;;;;;3.33;2.30;;;18.40;90.40;;;;;;10324783;28;20053;-66
2023/07/27 01:54:44;;;;;;;3.35;2.53;;;18.40;90.40;;;;;;10331960;28;20195;-66
2023/07/27 01:59:46;;;;;;;4.35;2.28;;;18.40;90.40;;;;;;10332895;28;20446;-66
2023/07/27 02:04:47;;;;;;;4.72;2.50;;;18.40;90.40;;;;;;10332127;28;20018;-65
2023/07/27 02:09:48;;;;;;;4.63;2.60;;;18.40;90.70;;;;;;10329464;28;20030;-66
2023/07/27 02:15:07;;;;;;;4.70;2.45;;;18.30;90.40;;;;;;10325177;28;20456;-66
2023/07/27 02:20:12;;;;;;;4.15;2.30;;;18.30;90.40;;;;;;10327769;28;20030;-65
2023/07/27 02:25:13;;;;;;;3.42;2.30;;;18.30;90.40;;;;;;10331003;28;20687;-66
2023/07/27 02:30:14;;;;;;;6.13;2.80;;;18.30;90.40;;;;;;10322503;28;20117;-66
2023/07/27 02:35:15;;;;;;;3.83;2.40;;;18.30;90.50;;;;;;10322658;28;20393;-66
2023/07/27 02:40:15;;;;;;;3.80;2.17;;;18.30;90.50;;;;;;10329743;28;20678;-66
2023/07/27 02:45:16;;;;;;;3.35;2.17;;;18.30;90.50;;;;;;10333739;28;20425;-66
2023/07/27 02:50:19;;;;;;;4.75;2.65;;;18.30;90.50;;;;;;10323722;28;20030;-66
2023/07/27 02:55:19;;;;;;;3.80;2.33;;;18.30;90.50;;;;;;10331772;28;20419;-65
2023/07/27 03:00:21;;;;;;;5.43;2.80;;;18.30;90.50;;;;;;10310159;28;20035;-66
2023/07/27 03:05:22;;;;;;;4.53;2.78;;;18.20;90.50;;;;;;10319206;28;20027;-65
2023/07/27 03:10:22;;;;;;;4.78;2.55;;;18.20;90.60;;;;;;10331526;28;20550;-66
2023/07/27 03:15:23;;;;;;;5.13;2.72;;;18.10;90.50;;;;;;10320558;28;20027;-66
2023/07/27 03:20:24;;;;;;;3.80;2.60;;;18.20;90.60;;;;;;10322390;28;20022;-67
2023/07/27 03:25:24;;;;;;;4.25;2.67;;;18.20;90.60;;;;;;10326131;28;20022;-66
2023/07/27 03:30:25;;;;;;;5.55;2.95;;;18.20;90.70;;;;;;10310527;28;20406;-66
2023/07/27 03:35:26;;;;;;;4.38;2.70;;;18.20;90.70;;;;;;10325756;28;20029;-66
2023/07/27 03:40:26;;;;;;;4.65;2.80;;;18.20;90.80;;;;;;10331587;28;20117;-65
2023/07/27 03:45:27;;;;;;;4.18;2.80;;;18.10;90.80;;;;;;10319318;28;20036;-66
2023/07/27 03:50:28;;;;;;;4.25;2.70;;;18.10;90.80;;;;;;10322372;28;20084;-66
2023/07/27 03:55:29;;;;;;;4.80;3.03;;;18.10;90.90;;;;;;10320173;28;20026;-65
2023/07/27 04:00:30;;;;;;;3.97;2.35;;;18.10;90.90;;;;;;10322702;28;20027;-66
2023/07/27 04:05:31;;;;;;;4.57;2.85;;;18.10;91.00;;;;;;10327446;28;20022;-65
2023/07/27 04:10:32;;;;;;;4.68;3.03;;;18.10;91.00;;;;;;10320407;28;20082;-66
2023/07/27 04:15:34;;;;;;;5.32;2.80;;;18.10;91.10;;;;;;10321246;28;20653;-66
2023/07/27 04:20:34;;;;;;;5.05;2.50;;;18.10;91.10;;;;;;10322484;28;20027;-65
2023/07/27 04:25:35;;;;;;;4.65;2.63;;;18.10;91.20;;;;;;10322255;28;20522;-66
2023/07/27 04:30:36;;;;;;;5.22;2.83;;;18.00;91.20;;;;;;10322777;28;20030;-66
2023/07/27 04:35:36;;;;;;;5.13;2.65;;;18.00;91.20;;;;;;10321231;28;20403;-65
2023/07/27 04:40:37;;;;;;;4.63;2.75;;;18.00;91.30;;;;;;10326693;28;20026;-65
2023/07/27 04:45:37;;;;;;;5.20;2.70;;;18.00;91.30;;;;;;10334521;28;20038;-65
2023/07/27 04:50:38;;;;;;;4.32;2.85;;;17.90;91.30;;;;;;10339304;28;20038;-66
2023/07/27 04:55:39;;;;;;;4.47;2.65;;;18.00;91.40;;;;;;10336802;28;20022;-66
2023/07/27 05:00:39;;;;;;;4.75;2.60;;;18.00;91.40;;;;;;10334242;28;20034;-66
2023/07/27 05:05:43;;;;;;;3.67;2.50;;;18.00;91.50;;;;;;10334492;28;20441;-66
2023/07/27 05:10:44;;;;;;;4.40;2.70;;;18.00;91.60;;;;;;10325607;28;20037;-65
2023/07/27 05:15:46;;;;;;;4.03;2.75;;;18.00;91.60;;;;;;10326074;28;20058;-66
2023/07/27 05:20:46;;;;;;;4.15;2.65;;;18.00;91.60;;;;;;10327905;28;20026;-65
2023/07/27 05:25:48;;;;;;;4.50;2.47;;;18.00;91.70;;;;;;10331016;28;20395;-65
2023/07/27 05:30:48;;;;;;;5.55;2.78;;;18.00;91.70;;;;;;10333880;28;20034;-66
2023/07/27 05:35:49;;;;;;;4.95;2.80;;;17.90;91.80;;;;;;10330662;28;20045;-66
2023/07/27 05:40:49;;;;;;;4.88;2.75;;;17.90;91.90;;;;;;10339618;28;20033;-66
2023/07/27 05:45:50;;;;;;;5.00;2.70;;;17.90;91.90;;;;;;10328175;28;20030;-66
2023/07/27 05:50:54;;;;;;;3.65;2.47;;;17.90;91.90;;;;;;10325650;28;20045;-66
2023/07/27 05:55:55;;;;;;;3.70;2.35;;;17.90;92.00;;;;;;10327149;28;20544;-65
2023/07/27 06:01:00;;;;;;;3.45;2.25;;;18.00;92.10;;;;;;10328849;28;20030;-66
2023/07/27 06:06:01;;;;;;;3.85;2.70;;;17.90;92.10;;;;;;10303604;28;20054;-66
2023/07/27 06:11:08;;;;;;;4.28;2.70;;;17.90;92.10;;;;;;10318449;28;20108;-66
2023/07/27 06:16:08;;;;;;;4.75;3.10;;;17.90;92.20;;;;;;10346599;28;20109;-65
2023/07/27 06:21:09;;;;;;;4.78;2.85;;;17.90;92.20;;;;;;10322748;28;20552;-65
2023/07/27 06:26:10;;;;;;;4.97;2.70;;;17.90;92.30;;;;;;10325457;28;20041;-66
2023/07/27 06:31:11;;;;;;;4.22;2.78;;;17.90;92.30;;;;;;10322960;28;20026;-66
2023/07/27 06:36:14;;;;;;;4.13;2.83;;;17.90;92.40;;;;;;10325669;28;20018;-66
2023/07/27 06:41:15;;;;;;;5.15;2.85;;;17.90;92.40;;;;;;10329760;28;20022;-67
2023/07/27 06:46:16;;;;;;;4.03;2.70;;;17.90;92.50;;;;;;10326107;28;20530;-66
2023/07/27 06:51:17;;;;;;;4.22;3.00;;;17.80;92.50;;;;;;10326640;28;20026;-66
2023/07/27 06:56:17;;;;;;;4.47;3.00;;;17.80;92.60;;;;;;10329399;28;20026;-67
2023/07/27 07:01:18;;;;;;;4.32;2.70;;;17.90;92.60;;;;;;10320330;28;20034;-66
2023/07/27 07:06:19;;;;;;;3.42;2.42;;;17.80;92.70;;;;;;10325110;28;20450;-67
2023/07/27 07:11:19;;;;;;;3.92;2.63;;;17.80;92.80;;;;;;10326179;28;20486;-67
2023/07/27 07:16:20;;;;;;;4.10;2.70;;;17.80;92.80;;;;;;10322005;28;20033;-66
2023/07/27 07:21:20;;;;;;;3.53;2.40;;;17.80;92.90;;;;;;10320501;28;20498;-67
2023/07/27 07:26:21;;;;;;;4.20;2.60;;;17.80;92.90;;;;;;10309309;28;20033;-67
2023/07/27 07:31:22;;;;;;;3.13;2.60;;;17.80;93.00;;;;;;10306788;28;20494;-67
2023/07/27 07:36:24;;;;;;;4.20;2.72;;;17.80;93.00;;;;;;10319260;28;20210;-67
2023/07/27 07:41:24;;;;;;;3.05;2.40;;;17.90;93.10;;;;;;10319715;28;20132;-66
2023/07/27 07:46:25;;;;;;;3.30;2.50;;;17.80;93.10;;;;;;10324439;28;20130;-66
2023/07/27 07:51:28;;;;;;;4.10;2.65;;;17.80;93.20;;;;;;10322696;28;20030;-67
2023/07/27 07:56:28;;;;;;;3.75;2.35;;;17.80;93.20;;;;;;10321390;28;20023;-67
2023/07/27 08:01:29;;;;;;;4.05;2.47;;;17.80;93.30;;;;;;10323738;28;20034;-68
2023/07/27 08:06:29;;;;;;;3.03;2.22;;;17.80;93.30;;;;;;10322238;28;20023;-67
2023/07/27 08:11:30;;;;;;;3.22;2.55;;;17.90;93.40;;;;;;10317913;28;20038;-66
2023/07/27 08:16:31;;;;;;;2.90;2.10;;;17.90;93.40;;;;;;10328669;28;20026;-67
2023/07/27 08:21:31;;;;;;;2.30;2.10;;;17.90;93.40;;;;;;10326872;28;20033;-67
2023/07/27 08:26:32;;;;;;;2.72;2.10;;;17.90;93.50;;;;;;10324162;28;20478;-67
2023/07/27 08:31:33;;;;;;;3.67;2.00;;;17.80;93.50;;;;;;10322846;28;20442;-67
2023/07/27 08:36:33;;;;;;;2.70;2.10;;;17.80;93.50;;;;;;10326708;28;20368;-68
2023/07/27 08:41:34;;;;;;;3.05;2.03;;;17.90;93.60;;;;;;10319564;28;20033;-67
2023/07/27 08:46:35;;;;;;;2.40;1.92;;;17.90;93.90;;;;;;10329215;28;20033;-66
2023/07/27 08:51:37;;;;;;;2.10;1.90;;;18.00;93.80;;;;;;10327617;28;20113;-67
2023/07/27 08:56:38;;;;;;;2.95;1.98;;;18.00;93.80;;;;;;10328327;28;20034;-67
2023/07/27 09:01:38;;;;;;;2.38;1.70;;;18.00;93.80;;;;;;10329275;28;20026;-67
2023/07/27 09:06:44;;;;;;;2.90;2.05;;;18.00;93.70;;;;;;10320999;28;20031;-68
2023/07/27 09:11:46;;;;;;;2.47;1.90;;;18.10;93.90;;;;;;10327793;28;20038;-68
2023/07/27 09:16:48;;;;;;;4.05;2.03;;;18.10;93.90;;;;;;10324260;28;20108;-68
2023/07/27 09:21:51;;;;;;;2.63;1.88;;;18.10;94.00;;;;;;10323093;28;20034;-67
2023/07/27 09:26:53;;;;;;;2.00;1.80;;;18.10;94.00;;;;;;10324876;28;20022;-68
2023/07/27 09:31:58;;;;;;;2.95;2.20;;;18.10;94.00;;;;;;10321690;28;20478;-67
2023/07/27 09:37:04;;;;;;;2.10;1.80;;;18.10;94.00;;;;;;10314222;28;20122;-68
2023/07/27 09:42:07;;;;;;;3.08;1.77;;;18.10;94.10;;;;;;10322657;28;20406;-68
2023/07/27 09:47:20;;;;;;;2.38;1.75;;;18.20;94.10;;;;;;10323088;28;20022;-67
2023/07/27 09:52:23;;;;;;;2.15;1.60;;;18.20;94.30;;;;;;10318060;28;20284;-67
2023/07/27 09:57:24;;;;;;;3.05;1.70;;;18.20;94.40;;;;;;10328571;28;20023;-66
2023/07/27 10:02:28;;;;;;;4.55;2.20;;;18.20;94.70;;;;;;10319881;28;20038;-70
2023/07/27 10:07:28;;;;;;;3.75;1.80;;;18.20;95.40;;;;;;10312311;28;20513;-67
2023/07/27 10:12:29;;;;;;;3.10;1.70;;;18.20;95.50;;;;;;10356071;28;20275;-66
2023/07/27 10:17:48;;;;;;;2.80;1.50;;;18.20;95.50;;;;;;10314299;28;20182;-66
2023/07/27 10:23:11;;;;;;;2.25;1.67;;;18.20;95.70;;;;;;10325637;28;20514;-66
2023/07/27 10:28:28;;;;;;;2.47;1.58;;;18.30;95.40;;;;;;10317263;28;20505;-66
2023/07/27 10:33:29;;;;;;;3.42;1.70;;;18.20;95.50;;;;;;10314679;28;20034;-66
2023/07/27 10:38:32;;;;;;;2.15;1.58;;;18.30;95.40;;;;;;10315906;28;20023;-67
2023/07/27 10:43:35;;;;;;;1.63;1.38;;;18.20;95.30;;;;;;10319459;28;20105;-66
2023/07/27 10:48:36;;;;;;;3.03;1.70;;;18.30;95.50;;;;;;10316721;28;20030;-66
2023/07/27 10:53:37;;;;;;;6.95;3.00;;;18.30;95.50;;;;;;10315635;28;20368;-67
2023/07/27 10:58:38;;;;;;;3.38;1.67;;;18.30;95.40;;;;;;10318067;28;20025;-67
2023/07/27 11:03:39;;;;;;;4.40;1.50;;;18.30;95.40;;;;;;10314246;28;20026;-67
2023/07/27 11:08:40;;;;;;;2.67;1.40;;;18.40;95.40;;;;;;10323310;28;20030;-67
2023/07/27 11:13:41;;;;;;;3.05;1.90;;;18.40;95.30;;;;;;10317536;28;20101;-67
2023/07/27 11:18:42;;;;;;;2.67;1.88;;;18.40;95.20;;;;;;10317026;28;20114;-67
2023/07/27 11:23:45;;;;;;;3.22;1.85;;;18.50;95.20;;;;;;10320642;28;20028;-66
2023/07/27 11:28:46;;;;;;;4.15;1.50;;;18.50;95.10;;;;;;10317447;28;20654;-67
2023/07/27 11:33:46;;;;;;;3.63;1.73;;;18.50;95.10;;;;;;10318225;28;20036;-67
2023/07/27 11:38:47;;;;;;;2.60;1.70;;;18.50;95.10;;;;;;10317916;28;20386;-67
2023/07/27 11:43:53;;;;;;;3.22;1.60;;;18.50;95.10;;;;;;10317747;28;20065;-66
2023/07/27 11:48:56;;;;;;;2.30;1.50;;;18.60;95.10;;;;;;10312360;28;20119;-66
2023/07/27 11:53:56;;;;;;;1.98;1.50;;;18.60;95.10;;;;;;10315022;28;20026;-67
2023/07/27 11:58:57;;;;;;;4.68;1.77;;;18.60;95.10;;;;;;10317263;28;20040;-66
2023/07/27 12:03:58;;;;;;;1.88;1.35;;;18.60;95.10;;;;;;10313270;28;20065;-67
2023/07/27 12:09:00;;;;;;;1.73;1.45;;;18.60;95.30;;;;;;10317624;28;20571;-67
2023/07/27 12:14:08;;;;;;;2.35;1.50;;;18.60;95.00;;;;;;10323018;28;20034;-67
2023/07/27 12:19:08;;;;;;;1.65;1.25;;;18.60;95.00;;;;;;10314298;28;20367;-67
2023/07/27 12:24:10;;;;;;;2.20;1.45;;;18.60;95.00;;;;;;10319683;28;20026;-67
2023/07/27 12:29:11;;;;;;;1.80;1.50;;;18.70;95.00;;;;;;10326250;28;20454;-67
2023/07/27 12:34:12;;;;;;;1.83;1.20;;;18.70;95.00;;;;;;10320176;28;20118;-67
2023/07/27 12:39:13;;;;;;;1.45;1.30;;;18.70;95.00;;;;;;10311418;28;20014;-66
2023/07/27 12:44:14;;;;;;;1.88;1.17;;;18.70;95.10;;;;;;10322309;28;20552;-67
2023/07/27 12:49:14;;;;;;;1.88;1.35;;;18.70;95.10;;;;;;10317818;28;20050;-67
2023/07/27 12:54:15;;;;;;;2.05;1.30;;;18.70;95.10;;;;;;10319139;28;20022;-67
2023/07/27 12:59:16;;;;;;;1.50;1.23;;;18.30;94.90;;;;;;10357634;28;20019;-67
2023/07/27 13:04:17;;;;;;;1.42;1.20;;;18.80;95.10;;;;;;10324839;28;20025;-67
2023/07/27 13:09:17;;;;;;;1.67;1.10;;;18.80;95.10;;;;;;10324224;28;20048;-67
2023/07/27 13:14:19;;;;;;;1.15;1.05;;;18.80;95.00;;;;;;10331259;28;20556;-67
2023/07/27 13:19:20;;;;;;;1.50;1.20;;;18.80;95.00;;;;;;10328332;28;20547;-68
2023/07/27 13:24:20;;;;;;;1.45;1.10;;;18.80;95.00;;;;;;10323878;28;20021;-67
2023/07/27 13:29:21;;;;;;;2.25;1.20;;;18.80;95.30;;;;;;10327475;28;20034;-67
2023/07/27 13:34:22;;;;;;;1.42;1.30;;;18.80;95.00;;;;;;10323090;28;20066;-67
2023/07/27 13:39:22;;;;;;;4.60;1.40;;;18.90;95.00;;;;;;10325168;28;20576;-67
2023/07/27 13:44:23;;;;;;;2.63;1.40;;;18.90;95.00;;;;;;10325708;28;20025;-67
2023/07/27 13:49:24;;;;;;;1.63;1.33;;;18.80;95.00;;;;;;10324386;28;20508;-67
2023/07/27 13:54:24;;;;;;;4.50;1.30;;;18.90;95.00;;;;;;10322716;28;20026;-67
2023/07/27 13:59:26;;;;;;;1.45;1.35;;;18.90;95.00;;;;;;10327795;28;20022;-68
2023/07/27 14:04:26;;;;;;;1.85;1.10;;;18.90;95.00;;;;;;10322443;28;20054;-67
2023/07/27 14:09:29;;;;;;;1.90;1.20;;;18.90;95.00;;;;;;10326305;28;20116;-67
2023/07/27 14:14:29;;;;;;;1.58;1.25;;;18.90;95.00;;;;;;10322817;28;20045;-67
2023/07/27 14:19:30;;;;;;;1.67;1.23;;;19.00;95.10;;;;;;10320012;28;20368;-67
2023/07/27 14:24:32;;;;;;;2.78;1.20;;;18.90;95.00;;;;;;10323413;28;20462;-67
2023/07/27 14:29:33;;;;;;;2.10;1.45;;;18.90;95.00;;;;;;10320997;28;20375;-67
2023/07/27 14:34:33;;;;;;;2.05;1.15;;;19.00;95.00;;;;;;10321286;28;20018;-67
2023/07/27 14:39:34;;;;;;;1.38;1.17;;;19.00;95.00;;;;;;10318192;28;20030;-67
2023/07/27 14:44:35;;;;;;;2.17;1.20;;;19.00;95.00;;;;;;10321563;28;20437;-67
2023/07/27 14:49:35;;;;;;;1.55;1.02;;;19.00;95.00;;;;;;10318120;28;20034;-67
2023/07/27 14:54:36;;;;;;;2.65;0.95;;;19.00;95.10;;;;;;10319120;28;20434;-66
2023/07/27 14:59:36;;;;;;;1.13;0.90;;;19.00;95.20;;;;;;10316910;28;20022;-67
2023/07/27 15:04:37;;;;;;;2.22;1.33;;;19.10;95.10;;;;;;10353729;28;20422;-67
2023/07/27 15:09:38;;;;;;;1.92;1.30;;;19.10;95.20;;;;;;10313945;28;20026;-67
2023/07/27 15:14:39;;;;;;;5.25;1.30;;;19.00;95.20;;;;;;10319398;28;20380;-67
2023/07/27 15:19:41;;;;;;;1.90;1.10;;;19.00;95.30;;;;;;10318202;28;20041;-66
2023/07/27 15:24:41;;;;;;;3.03;1.67;;;19.10;95.30;;;;;;10318334;28;20019;-67
2023/07/27 15:29:54;;;;;;;1.30;1.20;;;19.10;95.40;;;;;;10337290;28;20038;-67
2023/07/27 15:34:55;;;;;;;2.20;1.50;;;19.00;95.40;;;;;;10316918;28;20062;-67
2023/07/27 15:39:55;;;;;;;1.73;1.35;;;19.10;95.40;;;;;;10309909;28;20491;-67
2023/07/27 15:44:56;;;;;;;1.55;0.95;;;19.10;95.50;;;;;;10325811;28;20022;-67
2023/07/27 15:49:56;;;;;;;2.35;1.30;;;19.10;95.50;;;;;;10326350;28;20036;-67
2023/07/27 15:54:57;;;;;;;1.73;1.25;;;19.00;95.40;;;;;;10328346;28;20022;-67
2023/07/27 16:00:01;;;;;;;1.67;1.30;;;19.10;95.50;;;;;;10330684;28;20546;-67
2023/07/27 16:05:02;;;;;;;3.80;1.30;;;19.10;95.60;;;;;;10320629;28;20015;-67
2023/07/27 16:10:03;;;;;;;1.50;1.15;;;19.10;95.50;;;;;;10309611;28;20033;-67
2023/07/27 16:15:04;;;;;;;1.23;1.00;;;19.10;95.50;;;;;;10318257;28;20045;-67
2023/07/27 16:20:05;;;;;;;1.63;1.13;;;19.10;95.60;;;;;;10325484;28;20110;-67
2023/07/27 16:25:06;;;;;;;2.13;1.40;;;19.10;95.60;;;;;;10327994;28;20021;-68
2023/07/27 16:30:07;;;;;;;1.50;1.17;;;19.10;95.60;;;;;;10328559;28;20150;-68
2023/07/27 16:35:09;;;;;;;1.30;1.13;;;19.10;95.60;;;;;;10356372;28;20030;-67
2023/07/27 16:40:10;;;;;;;1.85;1.20;;;19.10;95.60;;;;;;10336823;28;20077;-67
2023/07/27 16:45:12;;;;;;;1.73;1.33;;;19.20;95.60;;;;;;10321803;28;20092;-67
2023/07/27 16:50:13;;;;;;;1.50;1.30;;;19.20;95.60;;;;;;10333030;28;20014;-67
2023/07/27 16:55:13;;;;;;;1.92;1.63;;;19.20;95.60;;;;;;10337968;28;20030;-67
2023/07/27 17:00:14;;;;;;;3.15;1.30;;;19.20;95.60;;;;;;10341077;28;20294;-67
2023/07/27 17:05:15;;;;;;;2.17;1.42;;;19.20;95.60;;;;;;10328644;28;20470;-66
2023/07/27 17:10:16;;;;;;;1.40;1.30;;;19.20;95.60;;;;;;10322584;28;20022;-67
2023/07/27 17:15:16;;;;;;;2.42;1.40;;;19.20;95.60;;;;;;10328762;28;20045;-68
2023/07/27 17:20:17;;;;;;;2.08;1.40;;;19.20;95.70;;;;;;10323725;28;20031;-67
2023/07/27 17:25:18;;;;;;;1.45;1.35;;;19.20;95.90;;;;;;10331688;28;20061;-68
2023/07/27 17:30:19;;;;;;;2.78;1.90;;;19.20;95.70;;;;;;10335456;28;20045;-67
2023/07/27 17:35:19;;;;;;;2.97;1.98;;;19.20;95.70;;;;;;10328804;28;20037;-67
2023/07/27 17:40:20;;;;;;;2.67;1.75;;;19.20;95.80;;;;;;10322822;28;20041;-67
2023/07/27 17:45:20;;;;;;;1.63;1.50;;;19.20;95.80;;;;;;10328848;28;20072;-67
2023/07/27 17:50:21;;;;;;;3.03;2.20;;;19.20;95.90;;;;;;10320542;28;20015;-66
2023/07/27 17:55:22;;;;;;;3.20;2.25;;;19.20;95.90;;;;;;10323780;28;20081;-67
2023/07/27 18:00:22;;;;;;;3.05;2.00;;;19.20;95.90;;;;;;10319404;28;20509;-65
2023/07/27 18:05:23;;;;;;;2.10;1.88;;;19.20;95.90;;;;;;10334386;28;20110;-66
2023/07/27 18:10:24;;;;;;;2.22;2.00;;;19.20;95.90;;;;;;10320767;28;20037;-67
2023/07/27 18:15:25;;;;;;;3.33;2.22;;;19.20;96.00;;;;;;10336441;28;20085;-66
2023/07/27 18:20:25;;;;;;;2.78;1.95;;;19.20;96.00;;;;;;10311372;28;20050;-67
2023/07/27 18:25:26;;;;;;;4.28;1.83;;;19.10;96.10;;;;;;10312358;28;20423;-67
2023/07/27 18:30:26;;;;;;;7.00;1.80;;;19.10;96.20;;;;;;10318823;28;20037;-67
2023/07/27 18:35:28;;;;;;;2.10;1.60;;;19.10;96.20;;;;;;10316528;28;20019;-67
2023/07/27 18:40:30;;;;;;;3.72;1.83;;;19.50;96.40;;;;;;10319484;28;20037;-67
2023/07/27 18:45:49;;;;;;;2.65;1.50;;;19.10;96.30;;;;;;10321939;28;20024;-67
2023/07/27 18:50:54;;;;;;;3.00;1.83;;;19.10;96.40;;;;;;10317234;28;20521;-66
2023/07/27 18:55:55;;;;;;;5.45;2.20;;;19.10;96.30;;;;;;10316953;28;20446;-67
2023/07/27 19:00:57;;;;;;;2.40;1.70;;;19.10;96.30;;;;;;10319740;28;20026;-67
2023/07/27 19:05:58;;;;;;;3.63;2.08;;;19.10;96.30;;;;;;10313580;28;20026;-67
2023/07/27 19:11:03;;;;;;;2.42;1.70;;;19.10;96.30;;;;;;10314254;28;20033;-67
2023/07/27 19:16:04;;;;;;;4.38;2.28;;;19.10;96.40;;;;;;10322759;28;20032;-67
2023/07/27 19:21:13;;;;;;;3.75;2.30;;;19.00;96.40;;;;;;10318598;28;20023;-67
2023/07/27 19:26:18;;;;;;;2.53;1.90;;;19.10;96.40;;;;;;10316387;28;20026;-67
2023/07/27 19:31:24;;;;;;;4.70;2.10;;;19.00;96.40;;;;;;10311741;28;20025;-67
2023/07/27 19:36:25;;;;;;;2.28;1.70;;;19.00;96.40;;;;;;10316533;28;20022;-67
2023/07/27 19:41:26;;;;;;;3.45;2.10;;;19.00;96.40;;;;;;10315755;28;20026;-67
2023/07/27 19:46:27;;;;;;;3.60;2.42;;;19.10;96.40;;;;;;10315516;28;20027;-67
2023/07/27 19:51:27;;;;;;;3.20;2.00;;;19.00;96.40;;;;;;10312681;28;20022;-66
2023/07/27 19:56:28;;;;;;;3.28;2.40;;;19.00;96.40;;;;;;10314524;28;20022;-67
2023/07/27 20:01:28;;;;;;;4.00;2.67;;;19.00;96.50;;;;;;10317825;28;20514;-67
2023/07/27 20:06:29;;;;;;;3.33;2.47;;;19.00;96.50;;;;;;10312401;28;20114;-67
2023/07/27 20:11:30;;;;;;;3.35;2.13;;;19.00;96.50;;;;;;10305758;28;20057;-67
2023/07/27 20:16:30;;;;;;;3.60;2.15;;;19.00;96.50;;;;;;10315226;28;20022;-67
2023/07/27 20:21:31;;;;;;;4.00;2.50;;;19.00;96.50;;;;;;10312916;28;20119;-67
2023/07/27 20:26:32;;;;;;;3.80;2.33;;;19.00;96.50;;;;;;10312283;28;20018;-67
2023/07/27 20:31:33;;;;;;;3.92;2.33;;;19.00;96.80;;;;;;10308285;28;20034;-67
2023/07/27 20:36:34;;;;;;;3.00;2.53;;;19.00;96.50;;;;;;10312363;28;20014;-67
2023/07/27 20:41:35;;;;;;;2.53;1.95;;;19.00;96.50;;;;;;10311334;28;20026;-67
2023/07/27 20:46:35;;;;;;;3.42;2.40;;;19.00;96.60;;;;;;10314041;28;20019;-67
2023/07/27 20:51:37;;;;;;;3.47;2.28;;;19.00;96.60;;;;;;10313107;28;20027;-67
2023/07/27 20:56:37;;;;;;;3.38;2.15;;;19.00;96.60;;;;;;10312630;28;20038;-67
2023/07/27 21:01:38;;;;;;;4.13;2.20;;;19.00;96.60;;;;;;10313607;28;20484;-67
2023/07/27 21:06:40;;;;;;;3.30;2.10;;;19.00;96.70;;;;;;10340929;28;20037;-67
2023/07/27 21:11:40;;;;;;;4.10;2.20;;;19.00;96.70;;;;;;10313062;28;20024;-67
2023/07/27 21:16:41;;;;;;;3.00;2.10;;;19.00;96.80;;;;;;10312552;28;20102;-67
2023/07/27 21:21:41;;;;;;;3.78;2.30;;;18.90;96.80;;;;;;10310844;28;20422;-67
2023/07/27 21:26:43;;;;;;;2.97;2.33;;;18.90;96.80;;;;;;10316236;28;20486;-67
2023/07/27 21:31:44;;;;;;;3.75;2.80;;;18.90;96.90;;;;;;10314999;28;20023;-67
2023/07/27 21:36:44;;;;;;;3.10;2.20;;;19.00;96.90;;;;;;10319116;28;20526;-67
2023/07/27 21:41:45;;;;;;;3.63;2.25;;;18.90;96.90;;;;;;10312852;28;20147;-68
2023/07/27 21:46:46;;;;;;;4.22;2.22;;;18.90;96.90;;;;;;10307898;28;20030;-68
2023/07/27 21:51:47;;;;;;;4.38;2.45;;;18.90;96.90;;;;;;10312669;28;20026;-68
2023/07/27 21:56:48;;;;;;;4.78;2.40;;;18.90;96.90;;;;;;10317548;28;20080;-68
2023/07/27 22:01:48;;;;;;;4.95;2.67;;;18.90;96.90;;;;;;10317716;28;20034;-68
2023/07/27 22:06:49;;;;;;;4.15;2.25;;;18.90;96.90;;;;;;10319536;28;20022;-68
2023/07/27 22:11:50;;;;;;;3.95;2.55;;;18.90;97.00;;;;;;10317055;28;20076;-68
2023/07/27 22:16:50;;;;;;;3.55;2.15;;;18.90;97.00;;;;;;10318210;28;20037;-68
2023/07/27 22:21:51;;;;;;;5.93;3.08;;;18.90;97.00;;;;;;10324993;28;20042;-68
2023/07/27 22:26:51;;;;;;;4.97;2.67;;;18.90;97.00;;;;;;10326687;28;20026;-68
2023/07/27 22:31:52;;;;;;;5.32;2.80;;;18.90;97.00;;;;;;10321939;28;20053;-68
2023/07/27 22:36:52;;;;;;;5.85;3.00;;;18.90;97.10;;;;;;10317886;28;20023;-67
2023/07/27 22:41:53;;;;;;;4.13;2.95;;;18.90;97.10;;;;;;10320051;28;20057;-68
2023/07/27 22:46:54;;;;;;;3.75;2.83;;;18.90;97.10;;;;;;10313755;28;20038;-68
2023/07/27 22:51:54;;;;;;;4.55;2.80;;;18.90;97.10;;;;;;10319569;28;20038;-67
2023/07/27 22:56:55;;;;;;;3.38;2.70;;;18.90;97.10;;;;;;10318321;28;20541;-68
2023/07/27 23:01:57;;;;;;;4.57;3.30;;;18.90;97.10;;;;;;10318906;28;20057;-68
2023/07/27 23:06:57;;;;;;;4.93;2.85;;;18.90;97.20;;;;;;10317950;28;20501;-67
2023/07/27 23:11:58;;;;;;;4.97;2.97;;;18.80;97.10;;;;;;10315949;28;20030;-67
2023/07/27 23:16:59;;;;;;;5.28;3.00;;;18.90;97.20;;;;;;10320764;28;20529;-67
2023/07/27 23:21:59;;;;;;;3.47;2.88;;;18.80;97.20;;;;;;10319548;28;20018;-67
2023/07/27 23:27:00;;;;;;;4.97;3.20;;;18.90;97.20;;;;;;10310371;28;20533;-68
2023/07/27 23:32:00;;;;;;;5.25;2.92;;;18.80;97.10;;;;;;10313461;28;20027;-68
2023/07/27 23:37:04;;;;;;;6.50;3.38;;;18.80;97.10;;;;;;10314653;28;20030;-68
2023/07/27 23:42:05;;;;;;;5.28;3.28;;;18.80;97.20;;;;;;10308562;28;20030;-68
2023/07/27 23:47:05;;;;;;;7.28;3.00;;;18.80;97.20;;;;;;10312668;28;20041;-68
2023/07/27 23:52:06;;;;;;;6.90;3.40;;;18.80;97.20;;;;;;10318347;28;20022;-68
2023/07/27 23:57:07;;;;;;;5.68;3.50;;;18.80;97.20;;;;;;10318055;28;20015;-68
